sensor_id;sensor_type;location;lat;lon;timestamp;P1;durP1;ratioP1;P2;durP2;ratioP2
17372;SDS011;8803;48.116;11.590;2023-05-02T00:00:47;1.93;;;1.77;;
17372;SDS011;8803;48.116;11.590;2023-05-02T00:03:00;2.30;;;2.07;;
17372;SDS011;8803;48.116;11.590;2023-05-02T00:05:05;1.80;;;1.70;;
17372;SDS011;8803;48.116;11.590;2023-05-02T00:07:18;1.90;;;1.80;;
17372;SDS011;8803;48.116;11.590;2023-05-02T00:09:22;2.10;;;1.90;;
17372;SDS011;8803;48.116;11.590;2023-05-02T00:11:26;2.03;;;1.60;;
17372;SDS011;8803;48.116;11.590;2023-05-02T00:13:30;2.30;;;1.90;;
17372;SDS011;8803;48.116;11.590;2023-05-02T00:15:34;2.17;;;1.97;;
17372;SDS011;8803;48.116;11.590;2023-05-02T00:17:47;1.83;;;1.73;;
17372;SDS011;8803;48.116;11.590;2023-05-02T00:19:51;1.83;;;1.73;;
17372;SDS011;8803;48.116;11.590;2023-05-02T00:21:54;1.87;;;1.77;;
17372;SDS011;8803;48.116;11.590;2023-05-02T00:23:58;1.90;;;1.80;;
17372;SDS011;8803;48.116;11.590;2023-05-02T00:26:02;1.80;;;1.70;;
17372;SDS011;8803;48.116;11.590;2023-05-02T00:28:14;2.20;;;2.00;;
17372;SDS011;8803;48.116;11.590;2023-05-02T00:30:18;1.93;;;1.83;;
17372;SDS011;8803;48.116;11.590;2023-05-02T00:32:23;1.90;;;1.80;;
17372;SDS011;8803;48.116;11.590;2023-05-02T00:34:28;1.90;;;1.80;;
17372;SDS011;8803;48.116;11.590;2023-05-02T00:36:41;1.80;;;1.70;;
17372;SDS011;8803;48.116;11.590;2023-05-02T00:38:45;3.07;;;1.90;;
17372;SDS011;8803;48.116;11.590;2023-05-02T00:40:49;1.90;;;1.80;;
17372;SDS011;8803;48.116;11.590;2023-05-02T00:42:53;1.93;;;1.83;;
17372;SDS011;8803;48.116;11.590;2023-05-02T00:44:58;2.17;;;2.00;;
17372;SDS011;8803;48.116;11.590;2023-05-02T00:47:13;2.13;;;1.97;;
17372;SDS011;8803;48.116;11.590;2023-05-02T00:49:17;1.97;;;1.80;;
17372;SDS011;8803;48.116;11.590;2023-05-02T00:51:21;1.80;;;1.70;;
17372;SDS011;8803;48.116;11.590;2023-05-02T00:53:26;2.03;;;1.77;;
17372;SDS011;8803;48.116;11.590;2023-05-02T00:55:30;1.70;;;1.60;;
17372;SDS011;8803;48.116;11.590;2023-05-02T00:57:43;1.50;;;1.40;;
17372;SDS011;8803;48.116;11.590;2023-05-02T00:59:47;1.97;;;1.77;;
17372;SDS011;8803;48.116;11.590;2023-05-02T01:01:54;2.10;;;1.90;;
17372;SDS011;8803;48.116;11.590;2023-05-02T01:04:12;2.43;;;2.23;;
17372;SDS011;8803;48.116;11.590;2023-05-02T01:06:26;2.10;;;2.00;;
17372;SDS011;8803;48.116;11.590;2023-05-02T01:08:32;2.00;;;1.80;;
17372;SDS011;8803;48.116;11.590;2023-05-02T01:10:44;3.13;;;2.00;;
17372;SDS011;8803;48.116;11.590;2023-05-02T01:12:53;2.57;;;2.37;;
17372;SDS011;8803;48.116;11.590;2023-05-02T01:15:01;2.50;;;2.30;;
17372;SDS011;8803;48.116;11.590;2023-05-02T01:17:09;2.77;;;2.10;;
17372;SDS011;8803;48.116;11.590;2023-05-02T01:19:24;2.43;;;2.10;;
17372;SDS011;8803;48.116;11.590;2023-05-02T01:21:29;2.23;;;2.03;;
17372;SDS011;8803;48.116;11.590;2023-05-02T01:23:51;2.30;;;2.10;;
17372;SDS011;8803;48.116;11.590;2023-05-02T01:26:02;2.33;;;2.13;;
17372;SDS011;8803;48.116;11.590;2023-05-02T01:28:15;2.33;;;2.13;;
17372;SDS011;8803;48.116;11.590;2023-05-02T01:30:20;3.37;;;2.10;;
17372;SDS011;8803;48.116;11.590;2023-05-02T01:32:33;2.13;;;2.00;;
17372;SDS011;8803;48.116;11.590;2023-05-02T01:34:38;2.57;;;2.37;;
17372;SDS011;8803;48.116;11.590;2023-05-02T01:36:53;2.40;;;1.97;;
17372;SDS011;8803;48.116;11.590;2023-05-02T01:38:59;2.20;;;2.00;;
17372;SDS011;8803;48.116;11.590;2023-05-02T01:41:06;2.20;;;1.90;;
17372;SDS011;8803;48.116;11.590;2023-05-02T01:43:19;2.27;;;2.07;;
17372;SDS011;8803;48.116;11.590;2023-05-02T01:45:24;2.20;;;2.00;;
17372;SDS011;8803;48.116;11.590;2023-05-02T01:47:39;2.83;;;1.97;;
17372;SDS011;8803;48.116;11.590;2023-05-02T01:49:45;1.87;;;1.77;;
17372;SDS011;8803;48.116;11.590;2023-05-02T01:51:49;1.97;;;1.80;;
17372;SDS011;8803;48.116;11.590;2023-05-02T01:53:54;2.20;;;2.10;;
17372;SDS011;8803;48.116;11.590;2023-05-02T01:56:08;1.70;;;1.60;;
17372;SDS011;8803;48.116;11.590;2023-05-02T01:58:12;1.90;;;1.80;;
17372;SDS011;8803;48.116;11.590;2023-05-02T02:00:25;2.43;;;2.20;;
17372;SDS011;8803;48.116;11.590;2023-05-02T02:02:30;1.80;;;1.70;;
17372;SDS011;8803;48.116;11.590;2023-05-02T02:04:45;2.43;;;2.23;;
17372;SDS011;8803;48.116;11.590;2023-05-02T02:09:01;1.90;;;1.80;;
17372;SDS011;8803;48.116;11.590;2023-05-02T02:11:07;1.93;;;1.80;;
17372;SDS011;8803;48.116;11.590;2023-05-02T02:13:14;2.13;;;2.03;;
17372;SDS011;8803;48.116;11.590;2023-05-02T02:15:27;2.00;;;1.90;;
17372;SDS011;8803;48.116;11.590;2023-05-02T02:17:35;2.30;;;2.10;;
17372;SDS011;8803;48.116;11.590;2023-05-02T02:19:48;2.33;;;2.13;;
17372;SDS011;8803;48.116;11.590;2023-05-02T02:21:55;3.40;;;1.90;;
17372;SDS011;8803;48.116;11.590;2023-05-02T02:24:02;1.93;;;1.77;;
17372;SDS011;8803;48.116;11.590;2023-05-02T02:26:07;1.97;;;1.80;;
17372;SDS011;8803;48.116;11.590;2023-05-02T02:28:13;2.00;;;1.90;;
17372;SDS011;8803;48.116;11.590;2023-05-02T02:30:17;1.70;;;1.60;;
17372;SDS011;8803;48.116;11.590;2023-05-02T02:32:20;1.77;;;1.67;;
17372;SDS011;8803;48.116;11.590;2023-05-02T02:34:24;3.40;;;1.80;;
17372;SDS011;8803;48.116;11.590;2023-05-02T02:38:43;1.87;;;1.77;;
17372;SDS011;8803;48.116;11.590;2023-05-02T02:40:52;2.10;;;1.80;;
17372;SDS011;8803;48.116;11.590;2023-05-02T02:43:05;2.20;;;2.00;;
17372;SDS011;8803;48.116;11.590;2023-05-02T02:47:28;2.33;;;2.10;;
17372;SDS011;8803;48.116;11.590;2023-05-02T02:49:42;1.73;;;1.63;;
17372;SDS011;8803;48.116;11.590;2023-05-02T02:52:00;1.90;;;1.80;;
17372;SDS011;8803;48.116;11.590;2023-05-02T02:54:07;1.93;;;1.83;;
17372;SDS011;8803;48.116;11.590;2023-05-02T02:56:21;2.23;;;2.03;;
17372;SDS011;8803;48.116;11.590;2023-05-02T02:58:30;1.83;;;1.73;;
17372;SDS011;8803;48.116;11.590;2023-05-02T03:00:38;2.67;;;2.00;;
17372;SDS011;8803;48.116;11.590;2023-05-02T03:02:43;2.00;;;1.90;;
17372;SDS011;8803;48.116;11.590;2023-05-02T03:07:00;2.23;;;1.77;;
17372;SDS011;8803;48.116;11.590;2023-05-02T03:09:04;2.17;;;2.07;;
17372;SDS011;8803;48.116;11.590;2023-05-02T03:11:09;2.67;;;1.87;;
17372;SDS011;8803;48.116;11.590;2023-05-02T03:13:24;1.80;;;1.70;;
17372;SDS011;8803;48.116;11.590;2023-05-02T03:15:39;2.97;;;1.87;;
17372;SDS011;8803;48.116;11.590;2023-05-02T03:17:52;2.17;;;1.97;;
17372;SDS011;8803;48.116;11.590;2023-05-02T03:19:56;2.10;;;2.00;;
17372;SDS011;8803;48.116;11.590;2023-05-02T03:22:00;2.13;;;2.00;;
17372;SDS011;8803;48.116;11.590;2023-05-02T03:24:12;1.83;;;1.73;;
17372;SDS011;8803;48.116;11.590;2023-05-02T03:26:16;1.70;;;1.60;;
17372;SDS011;8803;48.116;11.590;2023-05-02T03:30:33;1.90;;;1.80;;
17372;SDS011;8803;48.116;11.590;2023-05-02T03:32:38;1.90;;;1.80;;
17372;SDS011;8803;48.116;11.590;2023-05-02T03:36:53;3.00;;;1.90;;
17372;SDS011;8803;48.116;11.590;2023-05-02T03:38:57;1.77;;;1.67;;
17372;SDS011;8803;48.116;11.590;2023-05-02T03:41:01;2.57;;;2.37;;
17372;SDS011;8803;48.116;11.590;2023-05-02T03:43:14;2.30;;;2.10;;
17372;SDS011;8803;48.116;11.590;2023-05-02T03:45:18;1.90;;;1.80;;
17372;SDS011;8803;48.116;11.590;2023-05-02T03:47:30;2.30;;;2.10;;
17372;SDS011;8803;48.116;11.590;2023-05-02T03:49:34;1.90;;;1.80;;
17372;SDS011;8803;48.116;11.590;2023-05-02T03:51:38;2.70;;;2.50;;
17372;SDS011;8803;48.116;11.590;2023-05-02T03:53:41;2.40;;;2.20;;
17372;SDS011;8803;48.116;11.590;2023-05-02T03:55:45;2.23;;;2.07;;
17372;SDS011;8803;48.116;11.590;2023-05-02T03:58:01;1.90;;;1.80;;
17372;SDS011;8803;48.116;11.590;2023-05-02T04:00:09;2.30;;;2.10;;
17372;SDS011;8803;48.116;11.590;2023-05-02T04:02:14;2.57;;;2.10;;
17372;SDS011;8803;48.116;11.590;2023-05-02T04:04:18;2.00;;;1.80;;
17372;SDS011;8803;48.116;11.590;2023-05-02T04:06:21;2.20;;;2.00;;
17372;SDS011;8803;48.116;11.590;2023-05-02T04:08:34;2.90;;;1.60;;
17372;SDS011;8803;48.116;11.590;2023-05-02T04:10:38;3.73;;;2.10;;
17372;SDS011;8803;48.116;11.590;2023-05-02T04:12:42;1.73;;;1.63;;
17372;SDS011;8803;48.116;11.590;2023-05-02T04:14:46;1.90;;;1.80;;
17372;SDS011;8803;48.116;11.590;2023-05-02T04:16:49;1.73;;;1.63;;
17372;SDS011;8803;48.116;11.590;2023-05-02T04:18:53;2.03;;;1.83;;
17372;SDS011;8803;48.116;11.590;2023-05-02T04:20:57;1.93;;;1.80;;
17372;SDS011;8803;48.116;11.590;2023-05-02T04:23:01;1.97;;;1.80;;
17372;SDS011;8803;48.116;11.590;2023-05-02T04:27:16;1.80;;;1.70;;
17372;SDS011;8803;48.116;11.590;2023-05-02T04:29:20;1.90;;;1.70;;
17372;SDS011;8803;48.116;11.590;2023-05-02T04:31:33;2.67;;;2.17;;
17372;SDS011;8803;48.116;11.590;2023-05-02T04:33:37;1.80;;;1.70;;
17372;SDS011;8803;48.116;11.590;2023-05-02T04:35:40;1.90;;;1.80;;
17372;SDS011;8803;48.116;11.590;2023-05-02T04:37:54;1.70;;;1.60;;
17372;SDS011;8803;48.116;11.590;2023-05-02T04:39:58;2.50;;;2.30;;
17372;SDS011;8803;48.116;11.590;2023-05-02T04:42:03;2.00;;;1.80;;
17372;SDS011;8803;48.116;11.590;2023-05-02T04:44:07;2.03;;;1.83;;
17372;SDS011;8803;48.116;11.590;2023-05-02T04:46:20;1.93;;;1.83;;
17372;SDS011;8803;48.116;11.590;2023-05-02T04:48:23;2.17;;;1.97;;
17372;SDS011;8803;48.116;11.590;2023-05-02T04:50:36;1.83;;;1.63;;
17372;SDS011;8803;48.116;11.590;2023-05-02T04:52:40;2.03;;;1.83;;
17372;SDS011;8803;48.116;11.590;2023-05-02T04:54:44;1.97;;;1.80;;
17372;SDS011;8803;48.116;11.590;2023-05-02T04:56:48;2.00;;;1.80;;
17372;SDS011;8803;48.116;11.590;2023-05-02T04:58:52;1.73;;;1.63;;
17372;SDS011;8803;48.116;11.590;2023-05-02T05:00:55;2.13;;;2.00;;
17372;SDS011;8803;48.116;11.590;2023-05-02T05:02:59;1.87;;;1.77;;
17372;SDS011;8803;48.116;11.590;2023-05-02T05:05:12;1.83;;;1.73;;
17372;SDS011;8803;48.116;11.590;2023-05-02T05:07:16;2.07;;;1.90;;
17372;SDS011;8803;48.116;11.590;2023-05-02T05:09:20;2.00;;;1.90;;
17372;SDS011;8803;48.116;11.590;2023-05-02T05:11:33;3.03;;;2.10;;
17372;SDS011;8803;48.116;11.590;2023-05-02T05:13:38;3.00;;;1.83;;
17372;SDS011;8803;48.116;11.590;2023-05-02T05:15:42;2.47;;;1.90;;
17372;SDS011;8803;48.116;11.590;2023-05-02T05:17:56;2.10;;;2.00;;
17372;SDS011;8803;48.116;11.590;2023-05-02T05:20:00;2.53;;;2.03;;
17372;SDS011;8803;48.116;11.590;2023-05-02T05:22:04;1.80;;;1.70;;
17372;SDS011;8803;48.116;11.590;2023-05-02T05:24:08;2.20;;;1.90;;
17372;SDS011;8803;48.116;11.590;2023-05-02T05:26:12;1.97;;;1.77;;
17372;SDS011;8803;48.116;11.590;2023-05-02T05:28:25;2.20;;;2.00;;
17372;SDS011;8803;48.116;11.590;2023-05-02T05:30:29;2.63;;;1.90;;
17372;SDS011;8803;48.116;11.590;2023-05-02T05:32:32;2.30;;;2.10;;
17372;SDS011;8803;48.116;11.590;2023-05-02T05:34:36;2.20;;;2.00;;
17372;SDS011;8803;48.116;11.590;2023-05-02T05:36:49;2.30;;;2.10;;
17372;SDS011;8803;48.116;11.590;2023-05-02T05:38:53;2.40;;;2.20;;
17372;SDS011;8803;48.116;11.590;2023-05-02T05:40:56;2.23;;;2.03;;
17372;SDS011;8803;48.116;11.590;2023-05-02T05:43:01;2.00;;;1.87;;
17372;SDS011;8803;48.116;11.590;2023-05-02T05:45:06;2.30;;;2.10;;
17372;SDS011;8803;48.116;11.590;2023-05-02T05:47:19;2.30;;;2.10;;
17372;SDS011;8803;48.116;11.590;2023-05-02T05:49:23;2.43;;;2.23;;
17372;SDS011;8803;48.116;11.590;2023-05-02T05:51:36;2.30;;;2.10;;
17372;SDS011;8803;48.116;11.590;2023-05-02T05:53:40;1.77;;;1.67;;
17372;SDS011;8803;48.116;11.590;2023-05-02T05:55:54;2.20;;;2.00;;
17372;SDS011;8803;48.116;11.590;2023-05-02T05:57:59;2.10;;;1.90;;
17372;SDS011;8803;48.116;11.590;2023-05-02T06:00:03;1.87;;;1.70;;
17372;SDS011;8803;48.116;11.590;2023-05-02T06:02:19;2.57;;;1.70;;
17372;SDS011;8803;48.116;11.590;2023-05-02T06:04:23;2.23;;;2.03;;
17372;SDS011;8803;48.116;11.590;2023-05-02T06:06:40;2.40;;;2.20;;
17372;SDS011;8803;48.116;11.590;2023-05-02T06:08:44;3.13;;;2.47;;
17372;SDS011;8803;48.116;11.590;2023-05-02T06:10:48;2.40;;;2.20;;
17372;SDS011;8803;48.116;11.590;2023-05-02T06:12:52;3.40;;;2.63;;
17372;SDS011;8803;48.116;11.590;2023-05-02T06:14:55;2.90;;;2.70;;
17372;SDS011;8803;48.116;11.590;2023-05-02T06:17:14;2.50;;;2.30;;
17372;SDS011;8803;48.116;11.590;2023-05-02T06:19:30;2.57;;;2.37;;
17372;SDS011;8803;48.116;11.590;2023-05-02T06:21:35;2.40;;;2.20;;
17372;SDS011;8803;48.116;11.590;2023-05-02T06:23:39;2.50;;;2.30;;
17372;SDS011;8803;48.116;11.590;2023-05-02T06:25:43;3.00;;;2.70;;
17372;SDS011;8803;48.116;11.590;2023-05-02T06:27:57;2.70;;;2.50;;
17372;SDS011;8803;48.116;11.590;2023-05-02T06:30:01;2.57;;;2.37;;
17372;SDS011;8803;48.116;11.590;2023-05-02T06:32:06;2.60;;;2.40;;
17372;SDS011;8803;48.116;11.590;2023-05-02T06:34:10;2.23;;;2.03;;
17372;SDS011;8803;48.116;11.590;2023-05-02T06:36:14;2.40;;;2.13;;
17372;SDS011;8803;48.116;11.590;2023-05-02T06:38:27;3.00;;;2.70;;
17372;SDS011;8803;48.116;11.590;2023-05-02T06:40:33;2.47;;;2.27;;
17372;SDS011;8803;48.116;11.590;2023-05-02T06:42:37;2.67;;;2.47;;
17372;SDS011;8803;48.116;11.590;2023-05-02T06:46:53;2.67;;;2.47;;
17372;SDS011;8803;48.116;11.590;2023-05-02T06:48:57;2.47;;;2.20;;
17372;SDS011;8803;48.116;11.590;2023-05-02T06:53:13;2.73;;;2.53;;
17372;SDS011;8803;48.116;11.590;2023-05-02T06:55:17;2.90;;;2.63;;
17372;SDS011;8803;48.116;11.590;2023-05-02T06:57:30;3.53;;;3.17;;
17372;SDS011;8803;48.116;11.590;2023-05-02T06:59:33;3.90;;;3.60;;
17372;SDS011;8803;48.116;11.590;2023-05-02T07:01:37;3.50;;;3.20;;
17372;SDS011;8803;48.116;11.590;2023-05-02T07:03:41;2.70;;;2.30;;
17372;SDS011;8803;48.116;11.590;2023-05-02T07:05:45;2.70;;;2.50;;
17372;SDS011;8803;48.116;11.590;2023-05-02T07:07:57;4.33;;;2.57;;
17372;SDS011;8803;48.116;11.590;2023-05-02T07:10:02;2.77;;;2.33;;
17372;SDS011;8803;48.116;11.590;2023-05-02T07:12:06;3.03;;;2.83;;
17372;SDS011;8803;48.116;11.590;2023-05-02T07:14:10;2.40;;;2.20;;
17372;SDS011;8803;48.116;11.590;2023-05-02T07:16:14;2.93;;;2.60;;
17372;SDS011;8803;48.116;11.590;2023-05-02T07:18:27;2.83;;;2.60;;
17372;SDS011;8803;48.116;11.590;2023-05-02T07:20:31;2.83;;;2.63;;
17372;SDS011;8803;48.116;11.590;2023-05-02T07:22:35;3.03;;;2.80;;
17372;SDS011;8803;48.116;11.590;2023-05-02T07:26:54;3.07;;;2.80;;
17372;SDS011;8803;48.116;11.590;2023-05-02T07:28:58;2.57;;;2.37;;
17372;SDS011;8803;48.116;11.590;2023-05-02T07:31:01;2.60;;;2.40;;
17372;SDS011;8803;48.116;11.590;2023-05-02T07:33:05;3.33;;;3.03;;
17372;SDS011;8803;48.116;11.590;2023-05-02T07:35:09;3.37;;;3.07;;
17372;SDS011;8803;48.116;11.590;2023-05-02T07:37:22;3.63;;;3.33;;
17372;SDS011;8803;48.116;11.590;2023-05-02T07:39:26;3.60;;;3.30;;
17372;SDS011;8803;48.116;11.590;2023-05-02T07:41:30;2.80;;;2.60;;
17372;SDS011;8803;48.116;11.590;2023-05-02T07:43:34;4.33;;;3.00;;
17372;SDS011;8803;48.116;11.590;2023-05-02T07:45:38;3.60;;;3.30;;
17372;SDS011;8803;48.116;11.590;2023-05-02T07:47:53;3.60;;;3.30;;
17372;SDS011;8803;48.116;11.590;2023-05-02T07:49:57;2.77;;;2.57;;
17372;SDS011;8803;48.116;11.590;2023-05-02T07:52:02;3.23;;;2.97;;
17372;SDS011;8803;48.116;11.590;2023-05-02T07:54:15;3.80;;;3.50;;
17372;SDS011;8803;48.116;11.590;2023-05-02T07:56:19;3.30;;;3.00;;
17372;SDS011;8803;48.116;11.590;2023-05-02T07:58:34;3.80;;;3.40;;
17372;SDS011;8803;48.116;11.590;2023-05-02T08:00:38;3.80;;;3.33;;
17372;SDS011;8803;48.116;11.590;2023-05-02T08:02:42;6.87;;;5.27;;
17372;SDS011;8803;48.116;11.590;2023-05-02T08:04:46;4.63;;;4.23;;
17372;SDS011;8803;48.116;11.590;2023-05-02T08:06:58;7.60;;;4.57;;
17372;SDS011;8803;48.116;11.590;2023-05-02T08:09:03;4.20;;;3.80;;
17372;SDS011;8803;48.116;11.590;2023-05-02T08:11:07;3.83;;;3.17;;
17372;SDS011;8803;48.116;11.590;2023-05-02T08:13:10;4.20;;;3.90;;
17372;SDS011;8803;48.116;11.590;2023-05-02T08:15:14;3.97;;;3.67;;
17372;SDS011;8803;48.116;11.590;2023-05-02T08:17:28;4.37;;;3.70;;
17372;SDS011;8803;48.116;11.590;2023-05-02T08:19:32;4.20;;;3.80;;
17372;SDS011;8803;48.116;11.590;2023-05-02T08:21:36;5.07;;;4.03;;
17372;SDS011;8803;48.116;11.590;2023-05-02T08:23:40;3.83;;;3.53;;
17372;SDS011;8803;48.116;11.590;2023-05-02T08:25:45;3.27;;;2.93;;
17372;SDS011;8803;48.116;11.590;2023-05-02T08:27:58;4.37;;;3.43;;
17372;SDS011;8803;48.116;11.590;2023-05-02T08:30:02;3.83;;;3.53;;
17372;SDS011;8803;48.116;11.590;2023-05-02T08:32:06;4.57;;;3.57;;
17372;SDS011;8803;48.116;11.590;2023-05-02T08:34:10;3.67;;;3.37;;
17372;SDS011;8803;48.116;11.590;2023-05-02T08:36:23;3.70;;;3.30;;
17372;SDS011;8803;48.116;11.590;2023-05-02T08:38:28;3.80;;;3.50;;
17372;SDS011;8803;48.116;11.590;2023-05-02T08:40:41;3.40;;;3.10;;
17372;SDS011;8803;48.116;11.590;2023-05-02T08:42:45;3.77;;;3.47;;
17372;SDS011;8803;48.116;11.590;2023-05-02T08:44:49;3.70;;;3.30;;
17372;SDS011;8803;48.116;11.590;2023-05-02T08:46:53;4.73;;;3.70;;
17372;SDS011;8803;48.116;11.590;2023-05-02T08:48:58;4.23;;;3.83;;
17372;SDS011;8803;48.116;11.590;2023-05-02T08:51:05;5.70;;;5.20;;
17372;SDS011;8803;48.116;11.590;2023-05-02T08:53:11;4.50;;;4.10;;
17372;SDS011;8803;48.116;11.590;2023-05-02T08:55:15;4.33;;;4.03;;
17372;SDS011;8803;48.116;11.590;2023-05-02T08:57:28;3.70;;;3.40;;
17372;SDS011;8803;48.116;11.590;2023-05-02T08:59:32;4.33;;;3.77;;
17372;SDS011;8803;48.116;11.590;2023-05-02T09:01:36;4.70;;;4.30;;
17372;SDS011;8803;48.116;11.590;2023-05-02T09:03:43;5.33;;;4.07;;
17372;SDS011;8803;48.116;11.590;2023-05-02T09:05:50;3.87;;;3.47;;
17372;SDS011;8803;48.116;11.590;2023-05-02T09:08:03;4.37;;;3.10;;
17372;SDS011;8803;48.116;11.590;2023-05-02T09:10:08;4.10;;;3.30;;
17372;SDS011;8803;48.116;11.590;2023-05-02T09:12:12;3.43;;;3.13;;
17372;SDS011;8803;48.116;11.590;2023-05-02T09:14:17;3.70;;;3.40;;
17372;SDS011;8803;48.116;11.590;2023-05-02T09:16:21;3.00;;;2.80;;
17372;SDS011;8803;48.116;11.590;2023-05-02T09:18:35;4.00;;;3.60;;
17372;SDS011;8803;48.116;11.590;2023-05-02T09:20:40;4.03;;;3.63;;
17372;SDS011;8803;48.116;11.590;2023-05-02T09:22:47;4.30;;;3.10;;
17372;SDS011;8803;48.116;11.590;2023-05-02T09:24:53;3.20;;;2.90;;
17372;SDS011;8803;48.116;11.590;2023-05-02T09:26:59;3.83;;;3.43;;
17372;SDS011;8803;48.116;11.590;2023-05-02T09:29:15;3.60;;;3.30;;
17372;SDS011;8803;48.116;11.590;2023-05-02T09:31:22;4.07;;;3.63;;
17372;SDS011;8803;48.116;11.590;2023-05-02T09:33:27;3.93;;;3.63;;
17372;SDS011;8803;48.116;11.590;2023-05-02T09:35:31;4.47;;;4.07;;
17372;SDS011;8803;48.116;11.590;2023-05-02T09:37:35;4.10;;;3.53;;
17372;SDS011;8803;48.116;11.590;2023-05-02T09:40:04;5.07;;;3.60;;
17372;SDS011;8803;48.116;11.590;2023-05-02T09:42:10;4.33;;;3.90;;
17372;SDS011;8803;48.116;11.590;2023-05-02T09:44:23;4.63;;;4.23;;
17372;SDS011;8803;48.116;11.590;2023-05-02T09:46:28;4.40;;;4.00;;
17372;SDS011;8803;48.116;11.590;2023-05-02T09:48:50;4.40;;;4.00;;
17372;SDS011;8803;48.116;11.590;2023-05-02T09:50:56;4.07;;;3.67;;
17372;SDS011;8803;48.116;11.590;2023-05-02T09:53:00;5.13;;;3.80;;
17372;SDS011;8803;48.116;11.590;2023-05-02T09:55:14;6.13;;;3.97;;
17372;SDS011;8803;48.116;11.590;2023-05-02T09:57:39;4.20;;;3.40;;
17372;SDS011;8803;48.116;11.590;2023-05-02T09:59:52;3.30;;;3.00;;
17372;SDS011;8803;48.116;11.590;2023-05-02T10:01:57;4.73;;;4.33;;
17372;SDS011;8803;48.116;11.590;2023-05-02T10:04:03;6.30;;;3.87;;
17372;SDS011;8803;48.116;11.590;2023-05-02T10:06:08;3.60;;;3.30;;
17372;SDS011;8803;48.116;11.590;2023-05-02T10:08:23;3.97;;;3.67;;
17372;SDS011;8803;48.116;11.590;2023-05-02T10:10:29;4.30;;;3.30;;
17372;SDS011;8803;48.116;11.590;2023-05-02T10:12:35;3.63;;;3.30;;
17372;SDS011;8803;48.116;11.590;2023-05-02T10:14:42;4.23;;;3.10;;
17372;SDS011;8803;48.116;11.590;2023-05-02T10:16:51;3.43;;;3.17;;
17372;SDS011;8803;48.116;11.590;2023-05-02T10:19:06;4.40;;;4.00;;
17372;SDS011;8803;48.116;11.590;2023-05-02T10:21:15;4.00;;;3.70;;
17372;SDS011;8803;48.116;11.590;2023-05-02T10:23:19;5.03;;;4.00;;
17372;SDS011;8803;48.116;11.590;2023-05-02T10:25:25;4.87;;;4.40;;
17372;SDS011;8803;48.116;11.590;2023-05-02T10:27:39;4.10;;;3.80;;
17372;SDS011;8803;48.116;11.590;2023-05-02T10:29:43;4.53;;;4.13;;
17372;SDS011;8803;48.116;11.590;2023-05-02T10:31:48;3.80;;;3.50;;
17372;SDS011;8803;48.116;11.590;2023-05-02T10:33:53;4.97;;;4.47;;
17372;SDS011;8803;48.116;11.590;2023-05-02T10:36:09;5.37;;;4.97;;
17372;SDS011;8803;48.116;11.590;2023-05-02T10:38:14;4.90;;;4.50;;
17372;SDS011;8803;48.116;11.590;2023-05-02T10:40:27;5.00;;;4.60;;
17372;SDS011;8803;48.116;11.590;2023-05-02T10:42:32;4.43;;;4.03;;
17372;SDS011;8803;48.116;11.590;2023-05-02T10:44:46;4.90;;;4.33;;
17372;SDS011;8803;48.116;11.590;2023-05-02T10:46:51;5.63;;;5.13;;
17372;SDS011;8803;48.116;11.590;2023-05-02T10:49:06;6.00;;;5.40;;
17372;SDS011;8803;48.116;11.590;2023-05-02T10:51:11;6.37;;;5.77;;
17372;SDS011;8803;48.116;11.590;2023-05-02T10:53:27;5.20;;;4.80;;
17372;SDS011;8803;48.116;11.590;2023-05-02T10:55:32;5.23;;;4.73;;
17372;SDS011;8803;48.116;11.590;2023-05-02T11:00:24;5.60;;;4.43;;
17372;SDS011;8803;48.116;11.590;2023-05-02T11:02:47;4.13;;;3.73;;
17372;SDS011;8803;48.116;11.590;2023-05-02T11:04:58;5.03;;;4.53;;
17372;SDS011;8803;48.116;11.590;2023-05-02T11:07:17;5.10;;;4.33;;
17372;SDS011;8803;48.116;11.590;2023-05-02T11:09:31;5.30;;;4.80;;
17372;SDS011;8803;48.116;11.590;2023-05-02T11:11:38;6.73;;;5.57;;
17372;SDS011;8803;48.116;11.590;2023-05-02T11:13:50;5.30;;;4.80;;
17372;SDS011;8803;48.116;11.590;2023-05-02T11:15:53;4.37;;;3.97;;
17372;SDS011;8803;48.116;11.590;2023-05-02T11:17:58;4.60;;;4.00;;
17372;SDS011;8803;48.116;11.590;2023-05-02T11:22:31;3.90;;;3.60;;
17372;SDS011;8803;48.116;11.590;2023-05-02T11:24:38;9.83;;;8.30;;
17372;SDS011;8803;48.116;11.590;2023-05-02T11:26:54;6.10;;;5.10;;
17372;SDS011;8803;48.116;11.590;2023-05-02T11:32:02;4.70;;;4.03;;
17372;SDS011;8803;48.116;11.590;2023-05-02T11:34:06;4.93;;;4.43;;
17372;SDS011;8803;48.116;11.590;2023-05-02T11:36:10;4.73;;;3.90;;
17372;SDS011;8803;48.116;11.590;2023-05-02T11:38:23;4.63;;;4.20;;
17372;SDS011;8803;48.116;11.590;2023-05-02T11:40:28;5.63;;;4.63;;
17372;SDS011;8803;48.116;11.590;2023-05-02T11:42:32;5.43;;;4.20;;
17372;SDS011;8803;48.116;11.590;2023-05-02T11:44:55;5.77;;;5.00;;
17372;SDS011;8803;48.116;11.590;2023-05-02T11:46:59;5.80;;;5.10;;
17372;SDS011;8803;48.116;11.590;2023-05-02T11:49:12;7.73;;;4.73;;
17372;SDS011;8803;48.116;11.590;2023-05-02T11:51:21;5.43;;;4.93;;
17372;SDS011;8803;48.116;11.590;2023-05-02T11:53:33;5.37;;;4.67;;
17372;SDS011;8803;48.116;11.590;2023-05-02T11:57:57;6.50;;;4.97;;
17372;SDS011;8803;48.116;11.590;2023-05-02T12:00:02;6.00;;;5.50;;
17372;SDS011;8803;48.116;11.590;2023-05-02T12:02:08;6.37;;;4.80;;
17372;SDS011;8803;48.116;11.590;2023-05-02T12:04:12;6.50;;;5.47;;
17372;SDS011;8803;48.116;11.590;2023-05-02T12:06:16;6.20;;;5.60;;
17372;SDS011;8803;48.116;11.590;2023-05-02T12:08:20;6.17;;;5.57;;
17372;SDS011;8803;48.116;11.590;2023-05-02T12:10:35;6.10;;;5.50;;
17372;SDS011;8803;48.116;11.590;2023-05-02T12:12:40;6.23;;;5.63;;
17372;SDS011;8803;48.116;11.590;2023-05-02T12:14:52;7.17;;;5.50;;
17372;SDS011;8803;48.116;11.590;2023-05-02T12:16:57;6.37;;;5.77;;
17372;SDS011;8803;48.116;11.590;2023-05-02T12:19:11;6.43;;;5.80;;
17372;SDS011;8803;48.116;11.590;2023-05-02T12:21:16;6.40;;;5.80;;
17372;SDS011;8803;48.116;11.590;2023-05-02T12:23:21;6.50;;;5.60;;
17372;SDS011;8803;48.116;11.590;2023-05-02T12:25:27;6.07;;;5.57;;
17372;SDS011;8803;48.116;11.590;2023-05-02T12:27:31;6.60;;;5.10;;
17372;SDS011;8803;48.116;11.590;2023-05-02T12:29:39;7.13;;;6.40;;
17372;SDS011;8803;48.116;11.590;2023-05-02T12:31:51;7.47;;;6.50;;
17372;SDS011;8803;48.116;11.590;2023-05-02T12:33:56;6.60;;;6.00;;
17372;SDS011;8803;48.116;11.590;2023-05-02T12:36:09;6.47;;;5.70;;
17372;SDS011;8803;48.116;11.590;2023-05-02T12:38:13;12.87;;;11.57;;
17372;SDS011;8803;48.116;11.590;2023-05-02T12:40:26;25.87;;;23.60;;
17372;SDS011;8803;48.116;11.590;2023-05-02T12:42:31;11.13;;;10.10;;
17372;SDS011;8803;48.116;11.590;2023-05-02T12:44:35;7.03;;;6.43;;
17372;SDS011;8803;48.116;11.590;2023-05-02T12:46:57;5.90;;;5.40;;
17372;SDS011;8803;48.116;11.590;2023-05-02T12:49:09;7.13;;;6.50;;
17372;SDS011;8803;48.116;11.590;2023-05-02T12:51:20;6.70;;;6.00;;
17372;SDS011;8803;48.116;11.590;2023-05-02T12:53:37;6.40;;;5.80;;
17372;SDS011;8803;48.116;11.590;2023-05-02T12:55:42;5.80;;;5.30;;
17372;SDS011;8803;48.116;11.590;2023-05-02T12:58:01;6.13;;;5.40;;
17372;SDS011;8803;48.116;11.590;2023-05-02T13:00:06;6.23;;;5.50;;
17372;SDS011;8803;48.116;11.590;2023-05-02T13:02:11;5.20;;;4.77;;
17372;SDS011;8803;48.116;11.590;2023-05-02T13:04:15;4.47;;;4.00;;
17372;SDS011;8803;48.116;11.590;2023-05-02T13:06:19;4.60;;;4.20;;
17372;SDS011;8803;48.116;11.590;2023-05-02T13:08:32;4.33;;;3.93;;
17372;SDS011;8803;48.116;11.590;2023-05-02T13:10:37;9.67;;;6.00;;
17372;SDS011;8803;48.116;11.590;2023-05-02T13:12:40;5.00;;;4.53;;
17372;SDS011;8803;48.116;11.590;2023-05-02T13:14:44;5.10;;;4.60;;
17372;SDS011;8803;48.116;11.590;2023-05-02T13:16:48;5.23;;;4.80;;
17372;SDS011;8803;48.116;11.590;2023-05-02T13:18:53;5.97;;;5.30;;
17372;SDS011;8803;48.116;11.590;2023-05-02T13:21:07;5.27;;;4.77;;